sensor_id;sensor_type;location;lat;lon;timestamp;pressure;altitude;pressure_sealevel;temperature;humidity
57114;BME280;42994;51.606;9.988;2023-06-22T00:00:11;99289.94;;;18.39;100.00
57114;BME280;42994;51.606;9.988;2023-06-22T00:02:38;99289.91;;;18.15;100.00
57114;BME280;42994;51.606;9.988;2023-06-22T00:05:05;99305.03;;;18.35;100.00
57114;BME280;42994;51.606;9.988;2023-06-22T00:07:32;99320.97;;;18.43;100.00
57114;BME280;42994;51.606;9.988;2023-06-22T00:10:00;99324.03;;;18.47;100.00
57114;BME280;42994;51.606;9.988;2023-06-22T00:12:27;99323.91;;;18.30;100.00
57114;BME280;42994;51.606;9.988;2023-06-22T00:14:53;99326.97;;;18.33;100.00
57114;BME280;42994;51.606;9.988;2023-06-22T00:17:20;99321.78;;;18.32;100.00
57114;BME280;42994;51.606;9.988;2023-06-22T00:19:47;99317.03;;;18.27;100.00
57114;BME280;42994;51.606;9.988;2023-06-22T00:22:18;99307.72;;;18.23;100.00
57114;BME280;42994;51.606;9.988;2023-06-22T00:24:46;99284.63;;;17.78;100.00
57114;BME280;42994;51.606;9.988;2023-06-22T00:27:15;99295.56;;;18.14;100.00
57114;BME280;42994;51.606;9.988;2023-06-22T00:29:41;99294.88;;;18.18;100.00
57114;BME280;42994;51.606;9.988;2023-06-22T00:32:08;99298.75;;;18.22;100.00
57114;BME280;42994;51.606;9.988;2023-06-22T00:34:35;99297.00;;;18.16;100.00
57114;BME280;42994;51.606;9.988;2023-06-22T00:37:02;99305.09;;;17.93;100.00
57114;BME280;42994;51.606;9.988;2023-06-22T00:39:28;99262.22;;;17.41;100.00
57114;BME280;42994;51.606;9.988;2023-06-22T00:41:55;99244.63;;;17.20;100.00
57114;BME280;42994;51.606;9.988;2023-06-22T00:44:24;99238.41;;;17.31;100.00
57114;BME280;42994;51.606;9.988;2023-06-22T00:46:51;99254.22;;;17.76;100.00
57114;BME280;42994;51.606;9.988;2023-06-22T00:49:18;99265.25;;;17.93;100.00
57114;BME280;42994;51.606;9.988;2023-06-22T00:51:45;99272.28;;;17.94;100.00
57114;BME280;42994;51.606;9.988;2023-06-22T00:54:13;99273.25;;;17.88;100.00
57114;BME280;42994;51.606;9.988;2023-06-22T00:56:40;99270.53;;;17.88;100.00
57114;BME280;42994;51.606;9.988;2023-06-22T00:59:07;99266.88;;;17.94;100.00
57114;BME280;42994;51.606;9.988;2023-06-22T01:01:38;99257.69;;;17.95;100.00
57114;BME280;42994;51.606;9.988;2023-06-22T01:04:06;99259.59;;;17.95;100.00
57114;BME280;42994;51.606;9.988;2023-06-22T01:06:37;99263.13;;;17.95;100.00
57114;BME280;42994;51.606;9.988;2023-06-22T01:09:08;99270.66;;;17.93;100.00
57114;BME280;42994;51.606;9.988;2023-06-22T01:11:41;99251.63;;;17.81;100.00
57114;BME280;42994;51.606;9.988;2023-06-22T01:14:15;99242.34;;;17.47;100.00
57114;BME280;42994;51.606;9.988;2023-06-22T01:16:47;99228.63;;;17.30;100.00
57114;BME280;42994;51.606;9.988;2023-06-22T01:19:26;99189.06;;;16.80;100.00
57114;BME280;42994;51.606;9.988;2023-06-22T01:21:56;99163.44;;;16.64;100.00
57114;BME280;42994;51.606;9.988;2023-06-22T01:24:30;99168.72;;;17.08;100.00
57114;BME280;42994;51.606;9.988;2023-06-22T01:27:11;99198.16;;;17.46;100.00
57114;BME280;42994;51.606;9.988;2023-06-22T01:29:41;99211.47;;;17.36;100.00
57114;BME280;42994;51.606;9.988;2023-06-22T01:32:10;99202.53;;;17.17;100.00
57114;BME280;42994;51.606;9.988;2023-06-22T01:34:39;99201.56;;;17.42;100.00
57114;BME280;42994;51.606;9.988;2023-06-22T01:37:07;99206.41;;;17.52;100.00
57114;BME280;42994;51.606;9.988;2023-06-22T01:39:34;99210.44;;;17.61;100.00
57114;BME280;42994;51.606;9.988;2023-06-22T01:42:02;99214.34;;;17.65;100.00
57114;BME280;42994;51.606;9.988;2023-06-22T01:44:30;99219.66;;;17.72;100.00
57114;BME280;42994;51.606;9.988;2023-06-22T01:46:59;99210.34;;;17.67;100.00
57114;BME280;42994;51.606;9.988;2023-06-22T01:49:27;99206.34;;;17.70;100.00
57114;BME280;42994;51.606;9.988;2023-06-22T01:51:54;99223.66;;;17.69;100.00
57114;BME280;42994;51.606;9.988;2023-06-22T01:54:21;99199.53;;;17.25;100.00
57114;BME280;42994;51.606;9.988;2023-06-22T01:56:48;99161.56;;;16.83;100.00
57114;BME280;42994;51.606;9.988;2023-06-22T01:59:20;99135.31;;;16.84;100.00
57114;BME280;42994;51.606;9.988;2023-06-22T02:01:54;99115.44;;;16.71;100.00
57114;BME280;42994;51.606;9.988;2023-06-22T02:04:27;99105.00;;;16.75;100.00
57114;BME280;42994;51.606;9.988;2023-06-22T02:06:59;99092.91;;;16.78;100.00
57114;BME280;42994;51.606;9.988;2023-06-22T02:09:29;99129.03;;;17.14;100.00
57114;BME280;42994;51.606;9.988;2023-06-22T02:11:57;99149.00;;;17.31;100.00
57114;BME280;42994;51.606;9.988;2023-06-22T02:14:28;99166.13;;;17.43;100.00
57114;BME280;42994;51.606;9.988;2023-06-22T02:16:56;99186.84;;;17.49;100.00
57114;BME280;42994;51.606;9.988;2023-06-22T02:19:27;99202.19;;;17.56;100.00
57114;BME280;42994;51.606;9.988;2023-06-22T02:21:58;99208.66;;;17.55;100.00
57114;BME280;42994;51.606;9.988;2023-06-22T02:24:25;99220.19;;;17.50;100.00
57114;BME280;42994;51.606;9.988;2023-06-22T02:26:53;99216.66;;;17.49;100.00
57114;BME280;42994;51.606;9.988;2023-06-22T02:29:20;99220.09;;;17.57;100.00
57114;BME280;42994;51.606;9.988;2023-06-22T02:31:47;99238.72;;;17.65;100.00
57114;BME280;42994;51.606;9.988;2023-06-22T02:34:14;99247.72;;;17.65;100.00
57114;BME280;42994;51.606;9.988;2023-06-22T02:36:45;99246.19;;;17.70;100.00
57114;BME280;42994;51.606;9.988;2023-06-22T02:39:17;99252.41;;;17.70;100.00
57114;BME280;42994;51.606;9.988;2023-06-22T02:41:44;99249.94;;;17.68;100.00
57114;BME280;42994;51.606;9.988;2023-06-22T02:44:10;99250.78;;;17.69;100.00
57114;BME280;42994;51.606;9.988;2023-06-22T02:46:37;99247.72;;;17.77;100.00
57114;BME280;42994;51.606;9.988;2023-06-22T02:49:04;99253.00;;;17.72;100.00
57114;BME280;42994;51.606;9.988;2023-06-22T02:51:33;99249.25;;;17.73;100.00
57114;BME280;42994;51.606;9.988;2023-06-22T02:54:03;99253.97;;;17.78;100.00
57114;BME280;42994;51.606;9.988;2023-06-22T02:56:30;99251.03;;;17.79;100.00
57114;BME280;42994;51.606;9.988;2023-06-22T02:58:59;99252.69;;;17.80;100.00
57114;BME280;42994;51.606;9.988;2023-06-22T03:01:30;99261.88;;;17.79;100.00
57114;BME280;42994;51.606;9.988;2023-06-22T03:04:04;99260.69;;;17.75;100.00
57114;BME280;42994;51.606;9.988;2023-06-22T03:06:30;99259.06;;;17.74;100.00
57114;BME280;42994;51.606;9.988;2023-06-22T03:08:59;99231.84;;;17.39;100.00
57114;BME280;42994;51.606;9.988;2023-06-22T03:11:29;99191.38;;;16.95;100.00
57114;BME280;42994;51.606;9.988;2023-06-22T03:13:57;99157.50;;;16.74;100.00
57114;BME280;42994;51.606;9.988;2023-06-22T03:16:24;99151.84;;;16.94;100.00
57114;BME280;42994;51.606;9.988;2023-06-22T03:18:52;99168.19;;;17.29;100.00
57114;BME280;42994;51.606;9.988;2023-06-22T03:21:21;99185.09;;;17.43;100.00
57114;BME280;42994;51.606;9.988;2023-06-22T03:23:49;99215.13;;;17.54;100.00
57114;BME280;42994;51.606;9.988;2023-06-22T03:26:16;99211.53;;;17.60;100.00
57114;BME280;42994;51.606;9.988;2023-06-22T03:28:46;99216.34;;;17.58;100.00
57114;BME280;42994;51.606;9.988;2023-06-22T03:31:13;99219.66;;;17.60;100.00
57114;BME280;42994;51.606;9.988;2023-06-22T03:33:40;99231.66;;;17.64;100.00
57114;BME280;42994;51.606;9.988;2023-06-22T03:36:07;99226.84;;;17.66;100.00
57114;BME280;42994;51.606;9.988;2023-06-22T03:38:35;99224.72;;;17.68;100.00
57114;BME280;42994;51.606;9.988;2023-06-22T03:41:01;99238.03;;;17.70;100.00
57114;BME280;42994;51.606;9.988;2023-06-22T03:43:29;99224.00;;;17.61;100.00
57114;BME280;42994;51.606;9.988;2023-06-22T03:45:59;99182.44;;;17.25;100.00
57114;BME280;42994;51.606;9.988;2023-06-22T03:48:26;99143.00;;;16.99;100.00
57114;BME280;42994;51.606;9.988;2023-06-22T03:50:53;99112.19;;;17.00;100.00
57114;BME280;42994;51.606;9.988;2023-06-22T03:53:20;99106.19;;;17.09;100.00
57114;BME280;42994;51.606;9.988;2023-06-22T03:55:51;99113.56;;;17.44;100.00
57114;BME280;42994;51.606;9.988;2023-06-22T03:58:18;99128.22;;;17.67;100.00
57114;BME280;42994;51.606;9.988;2023-06-22T04:00:47;99143.06;;;17.76;100.00
57114;BME280;42994;51.606;9.988;2023-06-22T04:03:16;99152.59;;;17.79;100.00
57114;BME280;42994;51.606;9.988;2023-06-22T04:05:44;99164.84;;;17.81;100.00
57114;BME280;42994;51.606;9.988;2023-06-22T04:08:12;99176.19;;;17.78;100.00
57114;BME280;42994;51.606;9.988;2023-06-22T04:10:39;99169.47;;;17.69;100.00
57114;BME280;42994;51.606;9.988;2023-06-22T04:13:07;99152.84;;;17.65;100.00
57114;BME280;42994;51.606;9.988;2023-06-22T04:15:34;99154.94;;;17.63;100.00
57114;BME280;42994;51.606;9.988;2023-06-22T04:18:01;99156.34;;;17.78;100.00
57114;BME280;42994;51.606;9.988;2023-06-22T04:20:30;99166.44;;;17.89;100.00
57114;BME280;42994;51.606;9.988;2023-06-22T04:22:57;99170.66;;;17.97;100.00
57114;BME280;42994;51.606;9.988;2023-06-22T04:25:24;99171.38;;;17.92;100.00
57114;BME280;42994;51.606;9.988;2023-06-22T04:27:51;99174.06;;;17.92;100.00
57114;BME280;42994;51.606;9.988;2023-06-22T04:30:17;99177.88;;;17.91;100.00
57114;BME280;42994;51.606;9.988;2023-06-22T04:32:44;99170.31;;;17.93;100.00
57114;BME280;42994;51.606;9.988;2023-06-22T04:35:23;99167.03;;;17.91;100.00
57114;BME280;42994;51.606;9.988;2023-06-22T04:37:57;99166.88;;;17.98;100.00
57114;BME280;42994;51.606;9.988;2023-06-22T04:40:24;99170.66;;;17.97;100.00
57114;BME280;42994;51.606;9.988;2023-06-22T04:42:51;99167.13;;;17.96;100.00
57114;BME280;42994;51.606;9.988;2023-06-22T04:45:21;99165.25;;;17.97;100.00
57114;BME280;42994;51.606;9.988;2023-06-22T04:47:48;99166.66;;;17.99;100.00
57114;BME280;42994;51.606;9.988;2023-06-22T04:50:15;99159.81;;;17.97;100.00
57114;BME280;42994;51.606;9.988;2023-06-22T04:52:43;99141.66;;;17.97;100.00
57114;BME280;42994;51.606;9.988;2023-06-22T04:55:12;99145.69;;;17.95;100.00
57114;BME280;42994;51.606;9.988;2023-06-22T04:57:43;99155.56;;;18.01;100.00
57114;BME280;42994;51.606;9.988;2023-06-22T05:00:14;99140.38;;;18.00;100.00
57114;BME280;42994;51.606;9.988;2023-06-22T05:02:43;99153.94;;;18.00;100.00
57114;BME280;42994;51.606;9.988;2023-06-22T05:05:10;99146.38;;;18.02;100.00
57114;BME280;42994;51.606;9.988;2023-06-22T05:07:39;99150.25;;;18.06;100.00
57114;BME280;42994;51.606;9.988;2023-06-22T05:10:08;99151.19;;;18.12;100.00
57114;BME280;42994;51.606;9.988;2023-06-22T05:12:37;99155.81;;;18.11;100.00
57114;BME280;42994;51.606;9.988;2023-06-22T05:15:05;99159.69;;;18.15;100.00
57114;BME280;42994;51.606;9.988;2023-06-22T05:17:32;99165.22;;;18.20;100.00
57114;BME280;42994;51.606;9.988;2023-06-22T05:19:59;99159.22;;;18.18;100.00
57114;BME280;42994;51.606;9.988;2023-06-22T05:22:26;99165.22;;;18.20;100.00
57114;BME280;42994;51.606;9.988;2023-06-22T05:24:53;99163.56;;;18.19;100.00
57114;BME280;42994;51.606;9.988;2023-06-22T05:27:22;99161.59;;;18.15;100.00
57114;BME280;42994;51.606;9.988;2023-06-22T05:29:50;99133.88;;;18.01;100.00
57114;BME280;42994;51.606;9.988;2023-06-22T05:32:17;99135.31;;;18.03;100.00
57114;BME280;42994;51.606;9.988;2023-06-22T05:34:44;99113.84;;;18.02;100.00
57114;BME280;42994;51.606;9.988;2023-06-22T05:37:12;99100.16;;;17.97;100.00
57114;BME280;42994;51.606;9.988;2023-06-22T05:39:39;99112.28;;;18.06;100.00
57114;BME280;42994;51.606;9.988;2023-06-22T05:42:07;99125.81;;;18.18;100.00
57114;BME280;42994;51.606;9.988;2023-06-22T05:44:34;99137.13;;;18.27;100.00
57114;BME280;42994;51.606;9.988;2023-06-22T05:47:02;99137.84;;;18.34;100.00
57114;BME280;42994;51.606;9.988;2023-06-22T05:49:29;99141.13;;;18.36;100.00
57114;BME280;42994;51.606;9.988;2023-06-22T05:51:58;99149.97;;;18.43;100.00
57114;BME280;42994;51.606;9.988;2023-06-22T05:54:25;99138.06;;;18.44;100.00
57114;BME280;42994;51.606;9.988;2023-06-22T05:56:53;99128.47;;;18.41;100.00
57114;BME280;42994;51.606;9.988;2023-06-22T05:59:20;99143.31;;;18.51;100.00
57114;BME280;42994;51.606;9.988;2023-06-22T06:01:47;99137.78;;;18.57;100.00
57114;BME280;42994;51.606;9.988;2023-06-22T06:04:17;99135.78;;;18.53;100.00
57114;BME280;42994;51.606;9.988;2023-06-22T06:06:44;99134.13;;;18.52;100.00
57114;BME280;42994;51.606;9.988;2023-06-22T06:09:12;99126.69;;;18.59;100.00
57114;BME280;42994;51.606;9.988;2023-06-22T06:11:39;99136.78;;;18.63;100.00
57114;BME280;42994;51.606;9.988;2023-06-22T06:14:06;99137.47;;;18.71;100.00
57114;BME280;42994;51.606;9.988;2023-06-22T06:16:33;99117.59;;;18.53;100.00
57114;BME280;42994;51.606;9.988;2023-06-22T06:19:00;99113.91;;;18.59;100.00
57114;BME280;42994;51.606;9.988;2023-06-22T06:21:28;99105.97;;;18.70;100.00
57114;BME280;42994;51.606;9.988;2023-06-22T06:23:54;99115.75;;;18.71;100.00
57114;BME280;42994;51.606;9.988;2023-06-22T06:26:21;99138.41;;;18.88;100.00
57114;BME280;42994;51.606;9.988;2023-06-22T06:28:53;99136.47;;;19.00;100.00
57114;BME280;42994;51.606;9.988;2023-06-22T06:31:20;99147.50;;;19.11;100.00
57114;BME280;42994;51.606;9.988;2023-06-22T06:33:48;99137.81;;;19.15;100.00
57114;BME280;42994;51.606;9.988;2023-06-22T06:36:15;99135.25;;;19.25;100.00
57114;BME280;42994;51.606;9.988;2023-06-22T06:38:43;99148.84;;;19.42;100.00
57114;BME280;42994;51.606;9.988;2023-06-22T06:41:12;99139.06;;;19.41;100.00
57114;BME280;42994;51.606;9.988;2023-06-22T06:43:38;99137.75;;;19.61;100.00
57114;BME280;42994;51.606;9.988;2023-06-22T06:46:05;99131.47;;;19.60;100.00
57114;BME280;42994;51.606;9.988;2023-06-22T06:48:32;99130.19;;;19.80;100.00
57114;BME280;42994;51.606;9.988;2023-06-22T06:50:59;99139.47;;;19.84;100.00
57114;BME280;42994;51.606;9.988;2023-06-22T06:53:25;99139.66;;;19.94;100.00
57114;BME280;42994;51.606;9.988;2023-06-22T06:55:55;99137.97;;;20.10;100.00
57114;BME280;42994;51.606;9.988;2023-06-22T06:58:22;99143.59;;;20.25;100.00
57114;BME280;42994;51.606;9.988;2023-06-22T07:00:51;99154.13;;;20.39;100.00
57114;BME280;42994;51.606;9.988;2023-06-22T07:03:18;99170.03;;;20.47;100.00
57114;BME280;42994;51.606;9.988;2023-06-22T07:05:45;99184.22;;;20.49;100.00
57114;BME280;42994;51.606;9.988;2023-06-22T07:08:12;99205.25;;;20.53;100.00
57114;BME280;42994;51.606;9.988;2023-06-22T07:10:39;99197.91;;;20.54;100.00
57114;BME280;42994;51.606;9.988;2023-06-22T07:13:10;99210.03;;;20.63;100.00
57114;BME280;42994;51.606;9.988;2023-06-22T07:15:37;99216.59;;;20.89;100.00
57114;BME280;42994;51.606;9.988;2023-06-22T07:18:04;99213.31;;;20.87;100.00
57114;BME280;42994;51.606;9.988;2023-06-22T07:20:31;99208.97;;;20.86;100.00
57114;BME280;42994;51.606;9.988;2023-06-22T07:22:57;99200.16;;;21.06;100.00
57114;BME280;42994;51.606;9.988;2023-06-22T07:25:24;99201.78;;;21.29;100.00
57114;BME280;42994;51.606;9.988;2023-06-22T07:27:57;99211.06;;;21.28;100.00
57114;BME280;42994;51.606;9.988;2023-06-22T07:30:26;99224.25;;;21.42;100.00
57114;BME280;42994;51.606;9.988;2023-06-22T07:32:53;99222.59;;;21.41;100.00
57114;BME280;42994;51.606;9.988;2023-06-22T07:35:19;99227.63;;;21.49;100.00
57114;BME280;42994;51.606;9.988;2023-06-22T07:37:46;99221.97;;;21.56;100.00
57114;BME280;42994;51.606;9.988;2023-06-22T07:40:13;99234.84;;;21.60;100.00
57114;BME280;42994;51.606;9.988;2023-06-22T07:42:40;99232.78;;;21.45;100.00
57114;BME280;42994;51.606;9.988;2023-06-22T07:45:07;99228.59;;;21.38;100.00
57114;BME280;42994;51.606;9.988;2023-06-22T07:47:35;99234.84;;;21.60;100.00
57114;BME280;42994;51.606;9.988;2023-06-22T07:50:03;99237.31;;;21.62;100.00
57114;BME280;42994;51.606;9.988;2023-06-22T07:52:30;99232.84;;;21.83;100.00
57114;BME280;42994;51.606;9.988;2023-06-22T07:54:57;99239.50;;;21.97;100.00
57114;BME280;42994;51.606;9.988;2023-06-22T07:57:24;99229.72;;;22.01;100.00
57114;BME280;42994;51.606;9.988;2023-06-22T07:59:59;99239.28;;;22.04;100.00
57114;BME280;42994;51.606;9.988;2023-06-22T08:02:25;99229.03;;;22.21;100.00
57114;BME280;42994;51.606;9.988;2023-06-22T08:04:54;99243.75;;;22.53;100.00
57114;BME280;42994;51.606;9.988;2023-06-22T08:07:21;99257.56;;;22.89;100.00
57114;BME280;42994;51.606;9.988;2023-06-22T08:09:48;99267.91;;;23.45;100.00
57114;BME280;42994;51.606;9.988;2023-06-22T08:12:15;99264.03;;;23.30;100.00
57114;BME280;42994;51.606;9.988;2023-06-22T08:14:43;99261.69;;;23.75;100.00
57114;BME280;42994;51.606;9.988;2023-06-22T08:17:11;99275.66;;;23.89;100.00
57114;BME280;42994;51.606;9.988;2023-06-22T08:19:39;99280.28;;;24.29;100.00
57114;BME280;42994;51.606;9.988;2023-06-22T08:22:07;99283.31;;;24.02;100.00
57114;BME280;42994;51.606;9.988;2023-06-22T08:24:34;99286.31;;;24.47;100.00
57114;BME280;42994;51.606;9.988;2023-06-22T08:27:01;99286.84;;;24.49;100.00
57114;BME280;42994;51.606;9.988;2023-06-22T08:29:28;99286.28;;;24.62;100.00
57114;BME280;42994;51.606;9.988;2023-06-22T08:31:55;99284.34;;;24.83;100.00
57114;BME280;42994;51.606;9.988;2023-06-22T08:34:21;99286.47;;;24.91;100.00
57114;BME280;42994;51.606;9.988;2023-06-22T08:36:50;99279.84;;;25.08;100.00
57114;BME280;42994;51.606;9.988;2023-06-22T08:39:19;99280.47;;;25.49;100.00
57114;BME280;42994;51.606;9.988;2023-06-22T08:41:46;99264.91;;;25.40;100.00
57114;BME280;42994;51.606;9.988;2023-06-22T08:44:13;99267.41;;;25.36;100.00
57114;BME280;42994;51.606;9.988;2023-06-22T08:46:40;99252.84;;;25.75;100.00
57114;BME280;42994;51.606;9.988;2023-06-22T08:49:07;99259.44;;;25.35;100.00
57114;BME280;42994;51.606;9.988;2023-06-22T08:51:35;99250.00;;;25.96;100.00
57114;BME280;42994;51.606;9.988;2023-06-22T08:54:02;99254.59;;;25.61;100.00
57114;BME280;42994;51.606;9.988;2023-06-22T08:56:31;99244.50;;;25.90;100.00
57114;BME280;42994;51.606;9.988;2023-06-22T08:58:57;99244.16;;;26.02;100.00
57114;BME280;42994;51.606;9.988;2023-06-22T09:01:24;99251.31;;;26.03;100.00
57114;BME280;42994;51.606;9.988;2023-06-22T09:03:51;99249.22;;;25.50;100.00
57114;BME280;42994;51.606;9.988;2023-06-22T09:06:23;99249.16;;;26.54;100.00
57114;BME280;42994;51.606;9.988;2023-06-22T09:08:49;99245.16;;;26.41;100.00
57114;BME280;42994;51.606;9.988;2023-06-22T09:11:17;99244.59;;;25.80;100.00
57114;BME280;42994;51.606;9.988;2023-06-22T09:13:46;99247.19;;;26.01;100.00
57114;BME280;42994;51.606;9.988;2023-06-22T09:16:13;99242.81;;;26.00;100.00
57114;BME280;42994;51.606;9.988;2023-06-22T09:18:40;99241.38;;;26.37;100.00
57114;BME280;42994;51.606;9.988;2023-06-22T09:21:07;99239.97;;;26.10;100.00
57114;BME280;42994;51.606;9.988;2023-06-22T09:23:34;99237.91;;;26.26;100.00
57114;BME280;42994;51.606;9.988;2023-06-22T09:26:01;99235.44;;;26.24;100.00
57114;BME280;42994;51.606;9.988;2023-06-22T09:28:37;99230.41;;;26.61;100.00
57114;BME280;42994;51.606;9.988;2023-06-22T09:31:05;99218.63;;;26.31;100.00
57114;BME280;42994;51.606;9.988;2023-06-22T09:33:32;99223.91;;;26.76;100.00
57114;BME280;42994;51.606;9.988;2023-06-22T09:35:59;99221.00;;;26.67;100.00
57114;BME280;42994;51.606;9.988;2023-06-22T09:38:32;99218.78;;;26.69;100.00
57114;BME280;42994;51.606;9.988;2023-06-22T09:41:00;99222.63;;;26.68;100.00
57114;BME280;42994;51.606;9.988;2023-06-22T09:43:27;99208.03;;;26.92;100.00
57114;BME280;42994;51.606;9.988;2023-06-22T09:45:54;99215.59;;;27.43;100.00
57114;BME280;42994;51.606;9.988;2023-06-22T09:48:23;99209.00;;;26.82;100.00
57114;BME280;42994;51.606;9.988;2023-06-22T09:50:50;99205.13;;;27.26;100.00
57114;BME280;42994;51.606;9.988;2023-06-22T09:53:16;99199.84;;;26.87;100.00
57114;BME280;42994;51.606;9.988;2023-06-22T09:55:43;99193.06;;;27.22;100.00
57114;BME280;42994;51.606;9.988;2023-06-22T09:58:10;99199.53;;;27.50;100.00
57114;BME280;42994;51.606;9.988;2023-06-22T10:00:37;99196.78;;;27.50;100.00
57114;BME280;42994;51.606;9.988;2023-06-22T10:03:03;99193.06;;;27.41;100.00
57114;BME280;42994;51.606;9.988;2023-06-22T10:05:32;99208.09;;;27.30;100.00
57114;BME280;42994;51.606;9.988;2023-06-22T10:07:59;99199.31;;;27.47;100.00
57114;BME280;42994;51.606;9.988;2023-06-22T10:10:28;99197.59;;;27.84;100.00
57114;BME280;42994;51.606;9.988;2023-06-22T10:12:56;99198.13;;;27.34;100.00
57114;BME280;42994;51.606;9.988;2023-06-22T10:15:26;99201.84;;;27.43;100.00
57114;BME280;42994;51.606;9.988;2023-06-22T10:17:53;99197.97;;;27.96;100.00
57114;BME280;42994;51.606;9.988;2023-06-22T10:20:20;99184.88;;;27.88;100.00
57114;BME280;42994;51.606;9.988;2023-06-22T10:22:48;99181.06;;;28.16;100.00
57114;BME280;42994;51.606;9.988;2023-06-22T10:25:16;99177.19;;;28.17;100.00
57114;BME280;42994;51.606;9.988;2023-06-22T10:27:43;99178.66;;;28.43;100.00
57114;BME280;42994;51.606;9.988;2023-06-22T10:30:11;99171.50;;;28.28;100.00
57114;BME280;42994;51.606;9.988;2023-06-22T10:32:39;99171.97;;;28.02;100.00
57114;BME280;42994;51.606;9.988;2023-06-22T10:35:06;99166.78;;;28.14;100.00
57114;BME280;42994;51.606;9.988;2023-06-22T10:37:33;99174.41;;;27.90;100.00
57114;BME280;42994;51.606;9.988;2023-06-22T10:40:06;99153.50;;;28.16;100.00
57114;BME280;42994;51.606;9.988;2023-06-22T10:42:33;99155.06;;;28.23;100.00
57114;BME280;42994;51.606;9.988;2023-06-22T10:45:00;99143.63;;;28.15;100.00
57114;BME280;42994;51.606;9.988;2023-06-22T10:47:27;99136.28;;;28.25;100.00
57114;BME280;42994;51.606;9.988;2023-06-22T10:49:54;99141.25;;;28.50;100.00
57114;BME280;42994;51.606;9.988;2023-06-22T10:52:21;99133.03;;;28.64;100.00
57114;BME280;42994;51.606;9.988;2023-06-22T10:54:48;99134.09;;;28.49;100.00
57114;BME280;42994;51.606;9.988;2023-06-22T10:57:16;99144.22;;;28.40;100.00
57114;BME280;42994;51.606;9.988;2023-06-22T10:59:43;99134.16;;;27.89;100.00
57114;BME280;42994;51.606;9.988;2023-06-22T11:02:10;99140.84;;;28.29;100.00
57114;BME280;42994;51.606;9.988;2023-06-22T11:04:36;99136.16;;;28.02;100.00
57114;BME280;42994;51.606;9.988;2023-06-22T11:07:03;99134.09;;;27.94;100.00
57114;BME280;42994;51.606;9.988;2023-06-22T11:09:30;99121.00;;;27.86;100.00
57114;BME280;42994;51.606;9.988;2023-06-22T11:11:57;99127.69;;;28.12;100.00
57114;BME280;42994;51.606;9.988;2023-06-22T11:14:26;99126.91;;;28.53;100.00
57114;BME280;42994;51.606;9.988;2023-06-22T11:16:52;99124.22;;;28.34;100.00
57114;BME280;42994;51.606;9.988;2023-06-22T11:19:19;99130.66;;;28.30;100.00
57114;BME280;42994;51.606;9.988;2023-06-22T11:21:46;99119.00;;;28.47;100.00
57114;BME280;42994;51.606;9.988;2023-06-22T11:24:13;99110.44;;;28.07;100.00
57114;BME280;42994;51.606;9.988;2023-06-22T11:26:39;99109.03;;;28.09;100.00
57114;BME280;42994;51.606;9.988;2023-06-22T11:29:06;99095.34;;;28.32;100.00
57114;BME280;42994;51.606;9.988;2023-06-22T11:31:35;99091.59;;;28.78;100.00
57114;BME280;42994;51.606;9.988;2023-06-22T11:34:02;99087.03;;;28.73;100.00
57114;BME280;42994;51.606;9.988;2023-06-22T11:36:29;99086.44;;;28.63;100.00
57114;BME280;42994;51.606;9.988;2023-06-22T11:38:58;99075.00;;;28.55;100.00
57114;BME280;42994;51.606;9.988;2023-06-22T11:41:25;99067.13;;;28.63;100.00
57114;BME280;42994;51.606;9.988;2023-06-22T11:43:52;99066.88;;;28.73;100.00
57114;BME280;42994;51.606;9.988;2023-06-22T11:46:18;99062.34;;;28.54;100.00
57114;BME280;42994;51.606;9.988;2023-06-22T11:48:47;99055.78;;;28.50;100.00
57114;BME280;42994;51.606;9.988;2023-06-22T11:51:14;99048.13;;;28.61;100.00
57114;BME280;42994;51.606;9.988;2023-06-22T11:53:41;99033.16;;;28.53;100.00
57114;BME280;42994;51.606;9.988;2023-06-22T11:56:07;99045.91;;;28.86;100.00
57114;BME280;42994;51.606;9.988;2023-06-22T11:58:34;99037.75;;;28.81;100.00
57114;BME280;42994;51.606;9.988;2023-06-22T12:01:00;99036.94;;;28.80;100.00
57114;BME280;42994;51.606;9.988;2023-06-22T12:03:27;99037.06;;;28.98;100.00
57114;BME280;42994;51.606;9.988;2023-06-22T12:05:56;99038.63;;;29.12;100.00
57114;BME280;42994;51.606;9.988;2023-06-22T12:08:22;99036.69;;;28.40;98.83
57114;BME280;42994;51.606;9.988;2023-06-22T12:10:50;99021.31;;;28.75;99.31
57114;BME280;42994;51.606;9.988;2023-06-22T12:13:17;99022.28;;;29.16;98.46
57114;BME280;42994;51.606;9.988;2023-06-22T12:15:44;99014.88;;;29.25;99.09
57114;BME280;42994;51.606;9.988;2023-06-22T12:18:10;99020.34;;;29.48;100.00
57114;BME280;42994;51.606;9.988;2023-06-22T12:20:39;99010.63;;;29.50;96.37
57114;BME280;42994;51.606;9.988;2023-06-22T12:23:07;99018.41;;;29.17;95.32
57114;BME280;42994;51.606;9.988;2023-06-22T12:25:34;99014.53;;;29.49;94.43
57114;BME280;42994;51.606;9.988;2023-06-22T12:28:01;99008.38;;;29.52;94.82
57114;BME280;42994;51.606;9.988;2023-06-22T12:30:28;99000.88;;;29.53;94.82
57114;BME280;42994;51.606;9.988;2023-06-22T12:32:55;98990.16;;;29.51;94.97
57114;BME280;42994;51.606;9.988;2023-06-22T12:35:21;98989.06;;;29.61;96.61
57114;BME280;42994;51.606;9.988;2023-06-22T12:37:48;98982.72;;;29.52;96.19
57114;BME280;42994;51.606;9.988;2023-06-22T12:40:16;98970.38;;;29.58;95.36
57114;BME280;42994;51.606;9.988;2023-06-22T12:42:44;98972.00;;;29.59;95.81
57114;BME280;42994;51.606;9.988;2023-06-22T12:45:11;98972.06;;;29.37;95.92
57114;BME280;42994;51.606;9.988;2023-06-22T12:47:38;98968.75;;;29.26;96.98
57114;BME280;42994;51.606;9.988;2023-06-22T12:50:08;98964.44;;;29.42;95.61
57114;BME280;42994;51.606;9.988;2023-06-22T12:52:36;98954.72;;;29.45;95.65